createdAt,value
2023-03-13T00:00:57.949Z,95160.75
2023-03-13T00:03:24.847Z,95157.53
2023-03-13T00:05:56.533Z,95151.94
2023-03-13T00:08:24.062Z,95150.63
2023-03-13T00:10:50.669Z,95146.94
2023-03-13T00:13:17.212Z,95143.72
2023-03-13T00:15:43.744Z,95124.63
2023-03-13T00:18:10.318Z,95127.44
2023-03-13T00:20:36.774Z,95129.16
2023-03-13T00:23:03.442Z,95120.06
2023-03-13T00:25:29.991Z,95119.34
2023-03-13T00:27:56.482Z,95116.47
2023-03-13T00:30:23.066Z,95118.47
2023-03-13T00:32:49.663Z,95109.69
2023-03-13T00:35:16.357Z,95108.66
2023-03-13T00:37:43.341Z,95113.56
2023-03-13T00:40:10.344Z,95100.19
2023-03-13T00:42:36.986Z,95101.88
2023-03-13T00:45:04.180Z,95090.88
2023-03-13T00:47:30.736Z,95095.56
2023-03-13T00:49:57.212Z,95086.19
2023-03-13T00:52:24.130Z,95079.00
2023-03-13T00:54:50.657Z,95076.91
2023-03-13T00:57:17.177Z,95073.19
2023-03-13T00:59:43.710Z,95071.09
2023-03-13T01:02:10.243Z,95063.88
2023-03-13T01:04:36.860Z,95059.13
2023-03-13T01:07:03.372Z,95061.09
2023-03-13T01:09:30.052Z,95061.69
2023-03-13T01:11:56.759Z,95059.09
2023-03-13T01:14:23.328Z,95047.31
2023-03-13T01:16:49.970Z,95050.88
2023-03-13T01:19:17.271Z,95057.97
2023-03-13T01:21:46.021Z,95055.06
2023-03-13T01:24:12.711Z,95057.56
2023-03-13T01:26:39.196Z,95052.25
2023-03-13T01:29:05.893Z,95052.06
2023-03-13T01:31:35.144Z,95048.03
2023-03-13T01:34:05.457Z,95051.63
2023-03-13T01:36:33.217Z,95052.22
2023-03-13T01:39:00.995Z,95043.13
2023-03-13T01:41:28.959Z,95043.00
2023-03-13T01:43:55.834Z,95038.41
2023-03-13T01:46:28.508Z,95039.03
2023-03-13T01:49:10.165Z,95035.00
2023-03-13T01:51:49.146Z,95038.59
2023-03-13T01:54:24.746Z,95035.69
2023-03-13T01:56:53.890Z,95028.47
2023-03-13T01:59:28.524Z,95031.75
2023-03-13T02:01:58.815Z,95026.97
2023-03-13T02:04:29.263Z,95029.44
2023-03-13T02:07:01.946Z,95023.53
2023-03-13T02:09:32.226Z,95018.72
2023-03-13T02:12:07.226Z,95020.72
2023-03-13T02:14:36.030Z,95019.41
2023-03-13T02:17:03.748Z,95006.53
2023-03-13T02:19:35.626Z,95005.25
2023-03-13T02:22:30.243Z,95000.44
2023-03-13T02:25:12.766Z,95004.47
2023-03-13T02:27:40.536Z,95001.78
2023-03-13T02:30:08.774Z,94998.31
2023-03-13T02:32:35.744Z,95000.06
2023-03-13T02:35:07.517Z,95002.66
2023-03-13T02:37:34.374Z,94993.50
2023-03-13T02:40:08.418Z,94998.69
2023-03-13T02:42:36.551Z,95004.06
2023-03-13T02:45:03.070Z,95007.38
2023-03-13T02:47:29.590Z,95010.31
2023-03-13T02:49:56.219Z,95012.19
2023-03-13T02:52:38.181Z,95018.97
2023-03-13T02:55:12.119Z,95023.84
2023-03-13T02:57:38.682Z,95026.81
2023-03-13T03:00:07.347Z,95022.88
2023-03-13T03:02:34.552Z,95026.28
2023-03-13T03:05:01.140Z,95029.78
2023-03-13T03:07:27.910Z,95025.22
2023-03-13T03:09:54.538Z,95032.50
2023-03-13T03:12:21.067Z,95028.69
2023-03-13T03:14:47.976Z,95044.03
2023-03-13T03:17:15.199Z,95039.44
2023-03-13T03:19:41.823Z,95032.69
2023-03-13T03:22:09.309Z,95030.81
2023-03-13T03:24:35.797Z,95024.63
2023-03-13T03:27:04.049Z,95033.28
2023-03-13T03:29:37.008Z,95031.31
2023-03-13T03:32:06.540Z,95042.31
2023-03-13T03:34:33.322Z,95035.81
2023-03-13T03:37:00.112Z,95031.75
2023-03-13T03:39:28.509Z,95032.53
2023-03-13T03:41:55.821Z,95020.41
2023-03-13T03:44:23.476Z,95020.31
2023-03-13T03:46:53.666Z,95015.72
2023-03-13T03:49:21.641Z,95015.91
2023-03-13T03:51:48.626Z,95015.03
2023-03-13T03:54:19.030Z,95015.25
2023-03-13T03:56:45.508Z,95001.72
2023-03-13T03:59:12.115Z,95003.53
2023-03-13T04:01:47.430Z,94998.09
2023-03-13T04:04:18.596Z,95001.75
2023-03-13T04:06:49.916Z,94994.72
2023-03-13T04:09:16.721Z,94993.81
2023-03-13T04:11:43.276Z,94992.91
2023-03-13T04:14:11.207Z,94990.75
2023-03-13T04:16:38.016Z,94987.16
2023-03-13T04:19:04.810Z,94982.78
2023-03-13T04:21:31.331Z,94981.38
2023-03-13T04:24:02.487Z,94978.91
2023-03-13T04:26:30.137Z,94980.22
2023-03-13T04:28:58.690Z,94971.84
2023-03-13T04:31:43.592Z,94970.13
2023-03-13T04:34:29.526Z,94959.88
2023-03-13T04:37:28.620Z,94953.06
2023-03-13T04:40:17.758Z,94953.28
2023-03-13T04:43:01.257Z,94949.69
2023-03-13T04:45:46.780Z,94938.31
2023-03-13T04:48:27.948Z,94930.44
2023-03-13T04:51:14.793Z,94932.53
2023-03-13T04:53:52.356Z,94923.03
2023-03-13T04:56:43.769Z,94926.75
2023-03-13T04:59:30.005Z,94928.53
2023-03-13T05:02:16.750Z,94921.72
2023-03-13T05:05:06.064Z,94913.56
2023-03-13T05:07:51.106Z,94912.13
2023-03-13T05:10:36.107Z,94913.13
2023-03-13T05:13:23.084Z,94908.22
2023-03-13T05:15:52.222Z,94903.31
2023-03-13T05:18:53.989Z,94912.53
2023-03-13T05:21:29.086Z,94905.53
2023-03-13T05:24:14.083Z,94907.75
2023-03-13T05:26:59.531Z,94913.44
2023-03-13T05:29:37.773Z,94910.75
2023-03-13T05:32:30.696Z,94906.44
2023-03-13T05:35:16.920Z,94899.97
2023-03-13T05:38:10.084Z,94905.84
2023-03-13T05:40:58.692Z,94893.16
2023-03-13T05:43:54.856Z,94876.19
2023-03-13T05:46:54.050Z,94878.88
2023-03-13T05:49:38.937Z,94875.88
2023-03-13T05:52:18.652Z,94865.88
2023-03-13T05:55:11.794Z,94881.47
2023-03-13T05:57:53.907Z,94872.75
2023-03-13T06:00:27.855Z,94870.78
2023-03-13T06:03:13.044Z,94869.84
2023-03-13T06:05:42.664Z,94858.94
2023-03-13T06:08:22.427Z,94872.91
2023-03-13T06:10:49.594Z,94859.59
2023-03-13T06:13:19.998Z,94857.91
2023-03-13T06:15:57.189Z,94852.38
2023-03-13T06:18:40.709Z,94846.91
2023-03-13T06:21:07.252Z,94848.03
2023-03-13T06:23:33.895Z,94837.44
2023-03-13T06:26:00.448Z,94833.53
2023-03-13T06:28:27.070Z,94823.38
2023-03-13T06:30:53.580Z,94822.47
2023-03-13T06:33:20.102Z,94833.13
2023-03-13T06:35:56.175Z,94822.69
2023-03-13T06:38:24.845Z,94822.25
2023-03-13T06:40:51.636Z,94824.81
2023-03-13T06:43:19.167Z,94820.06
2023-03-13T06:45:45.892Z,94817.22
2023-03-13T06:48:12.417Z,94820.59
2023-03-13T06:50:40.478Z,94817.44
2023-03-13T06:53:07.302Z,94813.47
2023-03-13T06:55:33.939Z,94809.09
2023-03-13T06:58:00.484Z,94803.22
2023-03-13T07:00:27.085Z,94813.59
2023-03-13T07:02:53.768Z,94802.63
2023-03-13T07:05:20.344Z,94814.06
2023-03-13T07:07:47.035Z,94825.38
2023-03-13T07:10:13.630Z,94817.13
2023-03-13T07:12:40.104Z,94820.00
2023-03-13T07:15:07.545Z,94821.44
2023-03-13T07:17:34.272Z,94810.47
2023-03-13T07:20:01.081Z,94809.53
2023-03-13T07:22:27.656Z,94803.16
2023-03-13T07:24:54.308Z,94810.34
2023-03-13T07:27:21.079Z,94815.44
2023-03-13T07:29:47.835Z,94807.78
2023-03-13T07:32:14.450Z,94819.88
2023-03-13T07:34:40.993Z,94812.88
2023-03-13T07:37:07.436Z,94810.50
2023-03-13T07:39:33.938Z,94819.56
2023-03-13T07:42:00.402Z,94809.41
2023-03-13T07:44:27.112Z,94816.25
2023-03-13T07:46:53.627Z,94813.84
2023-03-13T07:49:20.237Z,94810.19
2023-03-13T07:51:46.809Z,94813.53
2023-03-13T07:54:13.742Z,94807.47
2023-03-13T07:56:40.388Z,94802.38
2023-03-13T07:59:07.165Z,94801.72
2023-03-13T08:01:33.747Z,94794.38
2023-03-13T08:04:00.234Z,94801.09
2023-03-13T08:06:27.803Z,94783.75
2023-03-13T08:08:57.530Z,94788.03
2023-03-13T08:11:26.137Z,94787.69
2023-03-13T08:13:54.080Z,94787.38
2023-03-13T08:16:23.834Z,94813.34
2023-03-13T08:18:52.884Z,94808.41
2023-03-13T08:21:27.756Z,94801.22
2023-03-13T08:23:56.443Z,94801.38
2023-03-13T08:26:26.021Z,94788.81
2023-03-13T08:28:57.682Z,94787.66
2023-03-13T08:31:26.929Z,94788.25
2023-03-13T08:33:53.527Z,94788.25
2023-03-13T08:36:23.219Z,94785.81
2023-03-13T08:38:50.934Z,94783.09
2023-03-13T08:41:20.009Z,94782.59
2023-03-13T08:43:47.308Z,94794.53
2023-03-13T08:46:15.013Z,94794.00
2023-03-13T08:48:42.070Z,94812.81
2023-03-13T08:51:11.784Z,94813.09
2023-03-13T08:53:39.570Z,94807.47
2023-03-13T08:56:06.949Z,94799.97
2023-03-13T08:58:33.628Z,94799.00
2023-03-13T09:01:04.420Z,94798.34
2023-03-13T09:03:31.720Z,94785.38
2023-03-13T09:05:59.596Z,94791.75
2023-03-13T09:08:27.117Z,94792.81
2023-03-13T09:10:57.448Z,94778.72
2023-03-13T09:13:25.014Z,94786.44
2023-03-13T09:16:02.317Z,94796.09
2023-03-13T09:18:29.701Z,94790.75
2023-03-13T09:20:56.245Z,94781.88
2023-03-13T09:23:23.538Z,94768.00
2023-03-13T09:25:53.688Z,94769.66
2023-03-13T09:28:20.532Z,94765.19
2023-03-13T09:30:47.137Z,94770.00
2023-03-13T09:33:13.683Z,94770.13
2023-03-13T09:35:40.628Z,94766.28
2023-03-13T09:38:07.854Z,94760.28
2023-03-13T09:40:41.777Z,94771.94
2023-03-13T09:43:25.508Z,94759.59
2023-03-13T09:45:57.968Z,94745.50
2023-03-13T09:48:29.701Z,94735.28
2023-03-13T09:51:28.414Z,94728.00
2023-03-13T09:54:04.066Z,94731.13
2023-03-13T09:56:39.154Z,94715.19
2023-03-13T09:59:11.195Z,94721.84
2023-03-13T10:01:40.317Z,94720.16
2023-03-13T10:04:31.310Z,94722.28
2023-03-13T10:06:58.042Z,94718.09
2023-03-13T10:09:33.867Z,94719.16
2023-03-13T10:12:06.307Z,94715.75
2023-03-13T10:14:47.580Z,94715.44
2023-03-13T10:17:32.081Z,94711.41
2023-03-13T10:20:26.537Z,94709.75
2023-03-13T10:23:02.960Z,94707.81
2023-03-13T10:25:29.424Z,94696.47
2023-03-13T10:27:56.368Z,94702.81
2023-03-13T10:30:27.439Z,94690.75
2023-03-13T10:32:58.054Z,94700.47
2023-03-13T10:35:31.044Z,94699.72
2023-03-13T10:38:05.881Z,94687.16
2023-03-13T10:40:32.612Z,94698.53
2023-03-13T10:43:12.916Z,94695.66
2023-03-13T10:45:39.636Z,94684.13
2023-03-13T10:48:29.427Z,94682.47
2023-03-13T10:50:57.255Z,94674.19
2023-03-13T10:53:33.161Z,94658.69
2023-03-13T10:56:15.670Z,94662.34
2023-03-13T10:58:43.268Z,94651.34
2023-03-13T11:01:16.688Z,94650.34
2023-03-13T11:03:44.400Z,94651.72
2023-03-13T11:06:31.931Z,94642.84
2023-03-13T11:09:02.503Z,94639.47
2023-03-13T11:11:29.030Z,94639.25
2023-03-13T11:14:09.197Z,94633.09
2023-03-13T11:16:45.264Z,94620.13
2023-03-13T11:19:34.357Z,94628.91
2023-03-13T11:22:19.710Z,94623.97
2023-03-13T11:25:04.449Z,94618.47
2023-03-13T11:27:55.677Z,94621.72
2023-03-13T11:30:52.884Z,94623.00
2023-03-13T11:33:42.150Z,94621.06
2023-03-13T11:36:19.001Z,94630.97
2023-03-13T11:38:54.144Z,94626.38
2023-03-13T11:42:15.031Z,94617.88
2023-03-13T11:45:12.867Z,94618.38
2023-03-13T11:48:07.032Z,94608.25
2023-03-13T11:50:39.934Z,94598.91
2023-03-13T11:53:21.363Z,94603.28
2023-03-13T11:56:00.134Z,94586.19
2023-03-13T11:58:58.804Z,94587.00
2023-03-13T12:01:34.757Z,94577.22
2023-03-13T12:04:28.746Z,94577.59
2023-03-13T12:07:03.612Z,94570.19
2023-03-13T12:09:46.001Z,94569.47
2023-03-13T12:12:21.235Z,94566.78
2023-03-13T12:14:57.819Z,94547.63
2023-03-13T12:17:42.094Z,94544.91
2023-03-13T12:20:20.654Z,94539.88
2023-03-13T12:23:31.342Z,94527.38
2023-03-13T12:26:13.335Z,94529.41
2023-03-13T12:29:08.982Z,94521.97
2023-03-13T12:31:47.393Z,94516.84
2023-03-13T12:34:43.254Z,94511.09
2023-03-13T12:37:28.167Z,94506.03
2023-03-13T12:40:12.180Z,94500.94
2023-03-13T12:42:38.699Z,94502.16
2023-03-13T12:45:07.705Z,94488.81
2023-03-13T12:47:45.929Z,94482.94
2023-03-13T12:50:29.255Z,94479.38
2023-03-13T12:53:21.165Z,94466.84
2023-03-13T12:56:04.358Z,94468.81
2023-03-13T12:58:59.605Z,94465.28
2023-03-13T13:01:36.373Z,94464.50
2023-03-13T13:04:02.947Z,94450.75
2023-03-13T13:06:52.230Z,94452.34
2023-03-13T13:09:33.747Z,94442.53
2023-03-13T13:12:25.215Z,94433.88
2023-03-13T13:14:51.651Z,94437.78
2023-03-13T13:17:43.281Z,94434.25
2023-03-13T13:20:28.529Z,94430.34
2023-03-13T13:22:55.069Z,94418.56
2023-03-13T13:25:31.933Z,94425.63
2023-03-13T13:28:26.721Z,94431.13
2023-03-13T13:30:56.182Z,94416.97
2023-03-13T13:33:22.730Z,94419.72
2023-03-13T13:36:07.591Z,94425.63
2023-03-13T13:38:35.981Z,94418.94
2023-03-13T13:41:02.381Z,94417.75
2023-03-13T13:43:40.693Z,94414.63
2023-03-13T13:46:27.000Z,94418.56
2023-03-13T13:49:05.506Z,94409.50
2023-03-13T13:51:33.847Z,94401.22
2023-03-13T13:54:01.584Z,94404.34
2023-03-13T13:56:28.013Z,94398.84
2023-03-13T13:59:05.714Z,94389.41
2023-03-13T14:01:33.559Z,94380.38
2023-03-13T14:04:27.910Z,94372.91
2023-03-13T14:06:58.970Z,94368.56
2023-03-13T14:09:43.458Z,94357.94
2023-03-13T14:12:30.763Z,94348.13
2023-03-13T14:15:14.049Z,94353.66
2023-03-13T14:17:44.168Z,94357.56
2023-03-13T14:20:17.950Z,94347.75
2023-03-13T14:22:46.374Z,94341.44
2023-03-13T14:25:12.933Z,94348.09
2023-03-13T14:27:47.997Z,94325.69
2023-03-13T14:30:18.779Z,94333.53
2023-03-13T14:32:46.122Z,94333.13
2023-03-13T14:35:16.833Z,94320.19
2023-03-13T14:37:45.709Z,94315.06
2023-03-13T14:40:18.318Z,94301.28
2023-03-13T14:42:50.855Z,94304.41
2023-03-13T14:45:30.813Z,94301.69
2023-03-13T14:48:23.317Z,94293.81
2023-03-13T14:50:59.631Z,94287.09
2023-03-13T14:53:35.473Z,94286.31
2023-03-13T14:56:11.487Z,94278.84
2023-03-13T14:58:38.478Z,94275.25
2023-03-13T15:01:23.828Z,94263.47
2023-03-13T15:03:50.687Z,94258.34
2023-03-13T15:06:19.595Z,94245.38
2023-03-13T15:09:07.812Z,94244.59
2023-03-13T15:11:34.465Z,94239.81
2023-03-13T15:14:01.338Z,94241.75
2023-03-13T15:16:28.957Z,94230.34
2023-03-13T15:18:55.750Z,94232.69
2023-03-13T15:21:24.446Z,94218.59
2023-03-13T15:23:54.114Z,94216.25
2023-03-13T15:26:20.962Z,94211.19
2023-03-13T15:28:48.010Z,94210.84
2023-03-13T15:31:15.480Z,94203.81
2023-03-13T15:33:43.798Z,94210.97
2023-03-13T15:36:11.615Z,94190.56
2023-03-13T15:38:38.972Z,94190.63
2023-03-13T15:41:05.601Z,94186.75
2023-03-13T15:43:32.177Z,94187.56
2023-03-13T15:45:58.933Z,94178.16
2023-03-13T15:48:28.000Z,94176.63
2023-03-13T15:50:57.448Z,94171.16
2023-03-13T15:53:26.543Z,94172.34
2023-03-13T15:55:54.864Z,94166.94
2023-03-13T15:58:22.073Z,94159.50
2023-03-13T16:00:48.843Z,94144.63
2023-03-13T16:03:18.819Z,94144.66
2023-03-13T16:05:46.570Z,94135.28
2023-03-13T16:08:25.901Z,94132.16
2023-03-13T16:11:00.919Z,94118.84
2023-03-13T16:13:27.485Z,94099.25
2023-03-13T16:15:53.985Z,94094.94
2023-03-13T16:18:22.604Z,94099.22
2023-03-13T16:20:50.132Z,94095.72
2023-03-13T16:23:16.643Z,94091.03
2023-03-13T16:25:44.486Z,94087.50
2023-03-13T16:28:12.695Z,94079.66
2023-03-13T16:30:40.040Z,94079.28
2023-03-13T16:33:07.058Z,94061.28
2023-03-13T16:35:34.366Z,94061.69
2023-03-13T16:38:01.524Z,94055.44
2023-03-13T16:40:34.114Z,94051.13
2023-03-13T16:43:01.011Z,94053.09
2023-03-13T16:45:27.987Z,94051.94
2023-03-13T16:47:54.598Z,94044.47
2023-03-13T16:50:34.711Z,94032.31
2023-03-13T16:53:01.344Z,94024.09
2023-03-13T16:55:28.899Z,94014.28
2023-03-13T16:57:57.067Z,94015.09
2023-03-13T17:00:24.919Z,94018.59
2023-03-13T17:02:51.683Z,94009.97
2023-03-13T17:05:19.108Z,94007.59
2023-03-13T17:07:48.079Z,93991.94
2023-03-13T17:10:22.259Z,93991.91
2023-03-13T17:12:49.170Z,93995.00
2023-03-13T17:15:16.495Z,93983.97
2023-03-13T17:17:45.526Z,93993.34
2023-03-13T17:20:16.469Z,93982.34
2023-03-13T17:22:43.195Z,93984.63
2023-03-13T17:25:10.375Z,93979.50
2023-03-13T17:27:37.598Z,93975.16
2023-03-13T17:30:20.291Z,93974.31
2023-03-13T17:32:47.153Z,93959.41
2023-03-13T17:35:14.332Z,93946.84
2023-03-13T17:37:40.952Z,93952.25
2023-03-13T17:40:16.069Z,93947.09
2023-03-13T17:42:42.598Z,93929.47
2023-03-13T17:45:09.717Z,93927.88
2023-03-13T17:47:36.250Z,93923.53
2023-03-13T17:50:03.314Z,93925.81
2023-03-13T17:52:29.761Z,93926.53
2023-03-13T17:54:56.409Z,93928.03
2023-03-13T17:57:23.003Z,93928.41
2023-03-13T17:59:49.718Z,93925.22
2023-03-13T18:02:17.172Z,93923.66
2023-03-13T18:04:44.416Z,93914.22
2023-03-13T18:07:25.378Z,93918.88
2023-03-13T18:09:51.936Z,93912.94
2023-03-13T18:12:19.134Z,93924.22
2023-03-13T18:14:46.321Z,93912.06
2023-03-13T18:17:21.848Z,93921.75
2023-03-13T18:19:49.986Z,93919.81
2023-03-13T18:22:17.896Z,93919.25
2023-03-13T18:24:44.463Z,93923.19
2023-03-13T18:27:14.294Z,93924.31
2023-03-13T18:29:41.347Z,93926.19
2023-03-13T18:32:08.212Z,93930.41
2023-03-13T18:34:34.926Z,93928.78
2023-03-13T18:37:02.128Z,93919.00
2023-03-13T18:39:28.704Z,93925.94
2023-03-13T18:41:55.280Z,93922.38
2023-03-13T18:44:21.955Z,93911.03
2023-03-13T18:46:49.659Z,93890.72
2023-03-13T18:49:19.651Z,93890.25
2023-03-13T18:51:47.714Z,93887.13
2023-03-13T18:54:14.386Z,93877.63
2023-03-13T18:56:41.268Z,93865.63
2023-03-13T18:59:12.489Z,93852.31
2023-03-13T19:01:39.099Z,93842.13
2023-03-13T19:04:05.803Z,93819.91
2023-03-13T19:06:35.293Z,93822.59
2023-03-13T19:09:37.888Z,93811.66
2023-03-13T19:11:58.857Z,93799.13
2023-03-13T19:14:25.524Z,93797.97
2023-03-13T19:16:53.592Z,93794.03
2023-03-13T19:19:22.094Z,93786.19
2023-03-13T19:21:49.681Z,93772.53
2023-03-13T19:24:16.733Z,93768.97
2023-03-13T19:26:48.836Z,93774.78
2023-03-13T19:29:18.205Z,93761.56
2023-03-13T19:31:44.936Z,93752.22
2023-03-13T19:34:11.665Z,93756.84
2023-03-13T19:39:26.555Z,93754.06
2023-03-13T19:41:53.798Z,93747.44
2023-03-13T19:44:21.174Z,93743.91
2023-03-13T19:46:48.467Z,93746.22
2023-03-13T19:49:19.856Z,93741.50
2023-03-13T19:51:46.624Z,93752.78
2023-03-13T19:54:13.685Z,93744.97
2023-03-13T19:56:43.017Z,93733.28
2023-03-13T19:59:18.861Z,93728.91
2023-03-13T20:01:46.386Z,93732.38
2023-03-13T20:04:13.692Z,93716.81
2023-03-13T20:06:41.923Z,93711.75
2023-03-13T20:09:11.938Z,93713.63
2023-03-13T20:11:38.487Z,93708.91
2023-03-13T20:14:05.686Z,93715.47
2023-03-13T20:16:34.917Z,93706.88
2023-03-13T20:19:02.586Z,93709.94
2023-03-13T20:21:31.542Z,93710.69
2023-03-13T20:23:58.907Z,93705.16
2023-03-13T20:26:27.156Z,93713.28
2023-03-13T20:28:54.759Z,93709.75
2023-03-13T20:31:24.280Z,93722.50
2023-03-13T20:33:51.200Z,93728.66
2023-03-13T20:36:19.756Z,93730.53
2023-03-13T20:38:46.720Z,93736.28
2023-03-13T20:41:13.563Z,93738.97
2023-03-13T20:43:40.216Z,93733.13
2023-03-13T20:46:07.485Z,93731.50
2023-03-13T20:48:38.292Z,93735.66
2023-03-13T20:51:06.982Z,93736.75
2023-03-13T20:53:36.076Z,93743.69
2023-03-13T20:56:05.974Z,93736.63
2023-03-13T20:58:33.088Z,93728.44
2023-03-13T21:01:00.833Z,93734.97
2023-03-13T21:03:28.254Z,93724.03
2023-03-13T21:05:55.200Z,93719.28
2023-03-13T21:08:21.837Z,93717.66
2023-03-13T21:10:48.432Z,93716.00
2023-03-13T21:13:14.938Z,93715.88
2023-03-13T21:15:41.414Z,93719.72
2023-03-13T21:18:08.016Z,93722.34
2023-03-13T21:20:34.623Z,93719.16
2023-03-13T21:23:01.371Z,93719.00
2023-03-13T21:25:27.938Z,93713.50
2023-03-13T21:27:54.595Z,93716.16
2023-03-13T21:30:21.834Z,93699.00
2023-03-13T21:32:48.624Z,93696.25
2023-03-13T21:35:15.834Z,93698.91
2023-03-13T21:37:42.297Z,93695.31
2023-03-13T21:40:09.616Z,93694.09
2023-03-13T21:42:36.213Z,93688.97
2023-03-13T21:45:07.092Z,93687.78
2023-03-13T21:47:34.129Z,93680.34
2023-03-13T21:50:00.674Z,93684.56
2023-03-13T21:52:27.183Z,93683.34
2023-03-13T21:54:53.758Z,93695.34
2023-03-13T21:57:20.211Z,93699.91
2023-03-13T21:59:46.644Z,93718.50
2023-03-13T22:02:13.685Z,93727.75
2023-03-13T22:04:40.451Z,93722.28
2023-03-13T22:07:07.194Z,93725.34
2023-03-13T22:09:33.747Z,93712.13
2023-03-13T22:12:00.404Z,93718.34
2023-03-13T22:14:26.953Z,93716.78
2023-03-13T22:16:53.511Z,93714.84
2023-03-13T22:19:20.131Z,93723.75
2023-03-13T22:21:47.045Z,93746.28
2023-03-13T22:24:14.184Z,93750.19
2023-03-13T22:26:40.951Z,93760.59
2023-03-13T22:29:07.960Z,93768.31
2023-03-13T22:31:36.202Z,93835.44
2023-03-13T22:34:02.776Z,93934.22
2023-03-13T22:36:29.492Z,93868.22
2023-03-13T22:38:56.044Z,93931.66
2023-03-13T22:41:22.809Z,93945.03
2023-03-13T22:43:49.479Z,93962.22
2023-03-13T22:46:15.928Z,93957.56
2023-03-13T22:48:42.491Z,93959.56
2023-03-13T22:51:11.897Z,93962.56
2023-03-13T22:53:40.697Z,93969.13
2023-03-13T22:56:08.577Z,93960.03
2023-03-13T22:58:35.417Z,93964.03
2023-03-13T23:01:05.968Z,93960.94
2023-03-13T23:03:32.707Z,93949.91
2023-03-13T23:05:59.245Z,93948.75
2023-03-13T23:08:25.813Z,93955.88
2023-03-13T23:10:52.789Z,93959.63
2023-03-13T23:13:19.348Z,93957.84
2023-03-13T23:16:01.267Z,93963.91
2023-03-13T23:18:27.978Z,93982.94
2023-03-13T23:20:54.904Z,93971.25
2023-03-13T23:23:21.860Z,93977.41
2023-03-13T23:25:48.551Z,93974.19
2023-03-13T23:28:15.048Z,93959.38
2023-03-13T23:30:42.091Z,93967.03
2023-03-13T23:33:08.563Z,93975.50
2023-03-13T23:35:37.609Z,93985.50
2023-03-13T23:38:04.185Z,94000.25
2023-03-13T23:40:30.891Z,93996.75
2023-03-13T23:42:57.397Z,93990.47
2023-03-13T23:45:23.944Z,93991.97
2023-03-13T23:47:52.830Z,93995.38
2023-03-13T23:50:19.538Z,93992.19
2023-03-13T23:52:46.021Z,93986.66
2023-03-13T23:55:12.626Z,93980.75
2023-03-13T23:57:39.128Z,93979.88
